createdAt,value
2023-04-26T00:01:05.458Z,16.70
2023-04-26T00:03:34.491Z,16.70
2023-04-26T00:06:05.779Z,16.70
2023-04-26T00:08:34.385Z,16.70
2023-04-26T00:11:03.146Z,16.70
2023-04-26T00:13:33.227Z,16.70
2023-04-26T00:16:02.032Z,16.70
2023-04-26T00:18:31.715Z,16.70
2023-04-26T00:21:00.426Z,16.60
2023-04-26T00:23:29.144Z,16.60
2023-04-26T00:25:58.830Z,16.60
2023-04-26T00:28:27.465Z,16.60
2023-04-26T00:30:58.961Z,16.50
2023-04-26T00:33:27.830Z,16.50
2023-04-26T00:35:56.778Z,16.50
2023-04-26T00:38:25.426Z,16.50
2023-04-26T00:40:54.149Z,16.40
2023-04-26T00:43:22.755Z,16.40
2023-04-26T00:45:51.946Z,16.40
2023-04-26T00:48:22.339Z,16.40
2023-04-26T00:50:51.018Z,16.40
2023-04-26T00:53:19.711Z,16.30
2023-04-26T00:55:49.162Z,16.30
2023-04-26T00:58:18.492Z,16.30
2023-04-26T01:00:47.695Z,16.30
2023-04-26T01:03:17.334Z,16.30
2023-04-26T01:05:47.770Z,16.30
2023-04-26T01:08:20.788Z,16.30
2023-04-26T01:10:50.310Z,16.20
2023-04-26T01:13:19.319Z,16.20
2023-04-26T01:15:50.512Z,16.20
2023-04-26T01:18:20.441Z,16.20
2023-04-26T01:20:52.138Z,16.20
2023-04-26T01:23:22.172Z,16.10
2023-04-26T01:25:51.330Z,16.10
2023-04-26T01:28:19.996Z,16.10
2023-04-26T01:30:48.826Z,16.10
2023-04-26T01:33:17.599Z,16.10
2023-04-26T01:35:46.446Z,16.10
2023-04-26T01:38:16.240Z,16.00
2023-04-26T01:40:46.388Z,16.00
2023-04-26T01:43:15.617Z,16.00
2023-04-26T01:45:47.755Z,16.00
2023-04-26T01:48:31.789Z,15.90
2023-04-26T01:51:02.836Z,15.90
2023-04-26T01:53:31.790Z,15.90
2023-04-26T01:56:03.808Z,15.90
2023-04-26T01:58:33.103Z,15.80
2023-04-26T02:01:08.046Z,15.80
2023-04-26T02:03:37.421Z,15.80
2023-04-26T02:06:06.624Z,15.80
2023-04-26T02:08:35.397Z,15.80
2023-04-26T02:11:05.556Z,15.80
2023-04-26T02:13:34.209Z,15.70
2023-04-26T02:16:03.254Z,15.70
2023-04-26T02:18:31.933Z,15.70
2023-04-26T02:21:00.632Z,15.70
2023-04-26T02:23:29.590Z,15.70
2023-04-26T02:25:58.302Z,15.70
2023-04-26T02:28:28.387Z,15.60
2023-04-26T02:30:58.528Z,15.60
2023-04-26T02:33:27.342Z,15.60
2023-04-26T02:35:56.061Z,15.60
2023-04-26T02:38:26.293Z,15.60
2023-04-26T02:41:00.550Z,15.60
2023-04-26T02:43:30.725Z,15.50
2023-04-26T02:46:01.389Z,15.50
2023-04-26T02:48:32.338Z,15.50
2023-04-26T02:51:01.056Z,15.50
2023-04-26T02:53:29.784Z,15.40
2023-04-26T02:55:58.428Z,15.40
2023-04-26T02:58:27.158Z,15.40
2023-04-26T03:01:01.726Z,15.40
2023-04-26T03:03:31.104Z,15.40
2023-04-26T03:06:00.183Z,15.40
2023-04-26T03:08:28.865Z,15.40
2023-04-26T03:10:57.547Z,15.30
2023-04-26T03:13:26.307Z,15.30
2023-04-26T03:15:57.267Z,15.30
2023-04-26T03:18:27.315Z,15.30
2023-04-26T03:20:56.054Z,15.30
2023-04-26T03:23:25.526Z,15.20
2023-04-26T03:25:55.405Z,15.20
2023-04-26T03:28:24.516Z,15.20
2023-04-26T03:30:53.635Z,15.20
2023-04-26T03:33:23.042Z,15.20
2023-04-26T03:35:53.068Z,15.20
2023-04-26T03:38:22.503Z,15.20
2023-04-26T03:40:51.574Z,15.20
2023-04-26T03:43:20.220Z,15.10
2023-04-26T03:45:51.136Z,15.20
2023-04-26T03:48:19.804Z,15.10
2023-04-26T03:50:48.667Z,15.10
2023-04-26T03:53:19.305Z,15.10
2023-04-26T03:55:48.036Z,15.10
2023-04-26T03:58:16.855Z,15.10
2023-04-26T04:00:45.546Z,15.10
2023-04-26T04:03:14.559Z,15.10
2023-04-26T04:05:43.374Z,15.00
2023-04-26T04:08:12.079Z,15.00
2023-04-26T04:10:42.714Z,15.00
2023-04-26T04:13:12.019Z,15.00
2023-04-26T04:15:40.883Z,15.00
2023-04-26T04:18:09.654Z,15.00
2023-04-26T04:20:38.936Z,15.00
2023-04-26T04:23:07.972Z,14.90
2023-04-26T04:25:38.993Z,14.90
2023-04-26T04:28:13.071Z,14.90
2023-04-26T04:30:43.697Z,14.90
2023-04-26T04:33:12.345Z,14.90
2023-04-26T04:35:43.448Z,14.90
2023-04-26T04:38:12.310Z,14.90
2023-04-26T04:40:41.354Z,14.90
2023-04-26T04:43:12.328Z,14.90
2023-04-26T04:45:41.695Z,14.90
2023-04-26T04:48:11.947Z,14.80
2023-04-26T04:50:42.174Z,14.90
2023-04-26T04:53:12.787Z,14.80
2023-04-26T04:55:41.702Z,14.80
2023-04-26T04:58:14.757Z,14.80
2023-04-26T05:00:43.758Z,14.80
2023-04-26T05:03:26.410Z,14.80
2023-04-26T05:05:55.213Z,14.80
2023-04-26T05:08:23.788Z,14.80
2023-04-26T05:10:53.499Z,14.80
2023-04-26T05:13:23.476Z,14.80
2023-04-26T05:15:52.118Z,14.80
2023-04-26T05:18:20.777Z,14.80
2023-04-26T05:20:49.532Z,14.80
2023-04-26T05:23:18.289Z,14.80
2023-04-26T05:25:47.007Z,14.80
2023-04-26T05:28:40.069Z,14.80
2023-04-26T05:31:26.953Z,14.80
2023-04-26T05:34:09.666Z,14.80
2023-04-26T05:36:40.387Z,14.80
2023-04-26T05:39:09.173Z,14.80
2023-04-26T05:41:37.875Z,14.80
2023-04-26T05:44:08.138Z,14.80
2023-04-26T05:46:36.983Z,14.80
2023-04-26T05:49:05.741Z,14.80
2023-04-26T05:51:35.703Z,14.80
2023-04-26T05:54:04.387Z,14.80
2023-04-26T05:56:33.042Z,14.80
2023-04-26T05:59:01.850Z,14.80
2023-04-26T06:01:32.054Z,14.80
2023-04-26T06:04:01.775Z,14.80
2023-04-26T06:06:37.900Z,14.80
2023-04-26T06:09:06.793Z,14.90
2023-04-26T06:11:35.440Z,14.80
2023-04-26T06:14:04.872Z,14.80
2023-04-26T06:16:35.067Z,14.90
2023-04-26T06:19:03.843Z,14.90
2023-04-26T06:21:33.064Z,14.80
2023-04-26T06:24:01.892Z,14.90
2023-04-26T06:26:32.240Z,14.90
2023-04-26T06:29:00.868Z,14.90
2023-04-26T06:31:29.563Z,14.90
2023-04-26T06:34:01.594Z,15.00
2023-04-26T06:36:31.015Z,15.00
2023-04-26T06:38:59.739Z,15.00
2023-04-26T06:41:28.469Z,15.00
2023-04-26T06:43:57.135Z,15.00
2023-04-26T06:46:32.825Z,15.00
2023-04-26T06:49:02.945Z,15.10
2023-04-26T06:51:31.724Z,15.20
2023-04-26T06:54:01.048Z,15.20
2023-04-26T06:56:29.828Z,15.20
2023-04-26T06:59:03.819Z,15.30
2023-04-26T07:01:34.323Z,15.30
2023-04-26T07:04:07.891Z,15.30
2023-04-26T07:06:36.687Z,15.40
2023-04-26T07:09:05.619Z,15.40
2023-04-26T07:11:34.408Z,15.40
2023-04-26T07:14:03.233Z,15.50
2023-04-26T07:16:32.210Z,15.60
2023-04-26T07:19:01.081Z,15.60
2023-04-26T07:21:31.056Z,15.60
2023-04-26T07:24:00.202Z,15.70
2023-04-26T07:26:29.773Z,15.70
2023-04-26T07:28:58.766Z,15.80
2023-04-26T07:31:27.428Z,15.80
2023-04-26T07:33:56.836Z,15.90
2023-04-26T07:36:26.601Z,16.00
2023-04-26T07:38:56.666Z,16.00
2023-04-26T07:41:25.331Z,16.00
2023-04-26T07:43:54.222Z,16.10
2023-04-26T07:46:23.039Z,16.20
2023-04-26T07:48:51.693Z,16.20
2023-04-26T07:51:21.007Z,16.20
2023-04-26T07:53:49.760Z,16.30
2023-04-26T07:56:19.930Z,16.30
2023-04-26T07:58:48.640Z,16.30
2023-04-26T08:01:17.344Z,16.40
2023-04-26T08:03:52.508Z,16.40
2023-04-26T08:06:22.485Z,16.50
2023-04-26T08:08:53.698Z,16.50
2023-04-26T08:11:23.809Z,16.50
2023-04-26T08:13:52.903Z,16.60
2023-04-26T08:16:21.726Z,16.60
2023-04-26T08:18:50.432Z,16.70
2023-04-26T08:21:19.118Z,16.70
2023-04-26T08:23:47.985Z,16.80
2023-04-26T08:26:16.591Z,16.80
2023-04-26T08:28:46.677Z,16.90
2023-04-26T08:31:17.060Z,17.00
2023-04-26T08:33:46.262Z,17.00
2023-04-26T08:36:15.414Z,17.10
2023-04-26T08:38:44.089Z,17.20
2023-04-26T08:41:15.908Z,17.30
2023-04-26T08:43:46.072Z,17.40
2023-04-26T08:46:17.752Z,17.40
2023-04-26T08:48:53.837Z,17.50
2023-04-26T08:51:23.835Z,17.60
2023-04-26T08:53:54.425Z,17.60
2023-04-26T08:56:25.566Z,17.70
2023-04-26T08:58:57.013Z,17.80
2023-04-26T09:01:27.801Z,17.80
2023-04-26T09:03:57.571Z,17.90
2023-04-26T09:06:28.290Z,18.00
2023-04-26T09:08:58.880Z,18.00
2023-04-26T09:11:27.493Z,18.10
2023-04-26T09:13:57.762Z,18.20
2023-04-26T09:16:37.121Z,18.30
2023-04-26T09:19:06.146Z,18.30
2023-04-26T09:21:34.854Z,18.40
2023-04-26T09:24:04.767Z,18.50
2023-04-26T09:26:33.405Z,18.50
2023-04-26T09:29:18.753Z,18.60
2023-04-26T09:31:50.121Z,18.60
2023-04-26T09:34:19.016Z,18.70
2023-04-26T09:36:53.088Z,18.70
2023-04-26T09:39:43.064Z,18.70
2023-04-26T09:42:12.572Z,18.70
2023-04-26T09:44:42.534Z,18.80
2023-04-26T09:47:13.067Z,18.80
2023-04-26T09:49:48.839Z,18.80
2023-04-26T09:52:18.971Z,18.90
2023-04-26T09:54:50.869Z,19.00
2023-04-26T09:57:22.318Z,19.10
2023-04-26T09:59:55.657Z,19.10
2023-04-26T10:02:26.766Z,19.20
2023-04-26T10:05:00.172Z,19.30
2023-04-26T10:07:30.207Z,19.40
2023-04-26T10:09:59.665Z,19.50
2023-04-26T10:12:28.418Z,19.60
2023-04-26T10:14:58.714Z,19.60
2023-04-26T10:17:27.427Z,19.70
2023-04-26T10:19:59.727Z,19.70
2023-04-26T10:22:36.884Z,19.70
2023-04-26T10:25:07.024Z,19.80
2023-04-26T10:27:54.460Z,19.80
2023-04-26T10:30:24.782Z,19.90
2023-04-26T10:33:23.922Z,20.00
2023-04-26T10:36:13.144Z,20.20
2023-04-26T10:38:43.586Z,20.30
2023-04-26T10:41:36.364Z,20.40
2023-04-26T10:44:41.233Z,20.40
2023-04-26T10:47:30.534Z,20.40
2023-04-26T10:50:10.225Z,20.40
2023-04-26T10:53:06.902Z,20.40
2023-04-26T10:55:43.004Z,20.30
2023-04-26T10:58:30.509Z,20.30
2023-04-26T11:01:06.407Z,20.20
2023-04-26T11:03:37.227Z,20.10
2023-04-26T11:06:09.750Z,20.10
2023-04-26T11:08:38.344Z,20.00
2023-04-26T11:11:31.075Z,20.00
2023-04-26T11:14:04.046Z,19.90
2023-04-26T11:16:32.705Z,19.90
2023-04-26T11:19:02.872Z,19.80
2023-04-26T11:21:32.775Z,19.70
2023-04-26T11:24:01.389Z,19.70
2023-04-26T11:26:36.037Z,19.60
2023-04-26T11:29:04.651Z,19.60
2023-04-26T11:31:33.381Z,19.60
2023-04-26T11:34:05.960Z,19.50
2023-04-26T11:36:39.022Z,19.50
2023-04-26T11:39:08.417Z,19.40
2023-04-26T11:41:37.080Z,19.40
2023-04-26T11:44:06.278Z,19.30
2023-04-26T11:46:35.349Z,19.30
2023-04-26T11:49:09.066Z,19.30
2023-04-26T11:51:38.349Z,19.30
2023-04-26T11:54:06.993Z,19.30
2023-04-26T11:56:35.728Z,19.20
2023-04-26T11:59:04.398Z,19.20
2023-04-26T12:01:33.272Z,19.20
2023-04-26T12:04:02.028Z,19.20
2023-04-26T12:06:45.185Z,19.10
2023-04-26T12:09:14.271Z,19.10
2023-04-26T12:11:42.983Z,19.10
2023-04-26T12:14:11.626Z,19.10
2023-04-26T12:16:40.223Z,19.00
2023-04-26T12:19:11.270Z,19.00
2023-04-26T12:21:45.274Z,19.00
2023-04-26T12:24:25.157Z,19.00
2023-04-26T12:26:54.255Z,19.00
2023-04-26T12:29:23.118Z,19.00
2023-04-26T12:31:51.971Z,19.00
2023-04-26T12:34:20.678Z,18.90
2023-04-26T12:36:51.064Z,18.90
2023-04-26T12:39:19.757Z,18.90
2023-04-26T12:41:49.144Z,18.90
2023-04-26T12:44:20.454Z,18.90
2023-04-26T12:46:51.375Z,18.80
2023-04-26T12:49:20.003Z,18.80
2023-04-26T12:51:50.017Z,18.80
2023-04-26T12:54:18.687Z,18.80
2023-04-26T12:56:48.546Z,18.80
2023-04-26T12:59:17.681Z,18.80
2023-04-26T13:01:46.387Z,18.80
2023-04-26T13:04:15.248Z,18.80
2023-04-26T13:06:44.082Z,18.80
2023-04-26T13:09:14.506Z,18.70
2023-04-26T13:11:43.216Z,18.70
2023-04-26T13:14:11.950Z,18.70
2023-04-26T13:16:43.824Z,18.80
2023-04-26T13:19:12.687Z,18.80
2023-04-26T13:21:42.323Z,18.80
2023-04-26T13:24:11.060Z,18.80
2023-04-26T13:26:41.069Z,18.80
2023-04-26T13:29:09.846Z,18.80
2023-04-26T13:31:39.968Z,18.80
2023-04-26T13:34:09.774Z,18.80
2023-04-26T13:36:38.439Z,18.80
2023-04-26T13:39:07.365Z,18.80
2023-04-26T13:41:36.299Z,18.80
2023-04-26T13:44:06.865Z,18.80
2023-04-26T13:46:35.869Z,18.80
2023-04-26T13:49:05.459Z,18.80
2023-04-26T13:51:34.864Z,18.90
2023-04-26T13:54:03.521Z,18.90
2023-04-26T13:56:32.346Z,18.90
2023-04-26T13:59:03.669Z,18.90
2023-04-26T14:01:36.985Z,18.90
2023-04-26T14:04:06.456Z,18.90
2023-04-26T14:06:36.410Z,18.90
2023-04-26T14:09:06.133Z,18.90
2023-04-26T14:11:34.831Z,18.90
2023-04-26T14:14:03.471Z,18.90
2023-04-26T14:16:33.568Z,18.90
2023-04-26T14:19:02.885Z,18.90
2023-04-26T14:21:31.624Z,18.90
2023-04-26T14:24:00.296Z,18.90
2023-04-26T14:26:28.966Z,18.90
2023-04-26T14:28:57.572Z,18.90
2023-04-26T14:31:28.106Z,18.90
2023-04-26T14:33:58.223Z,18.90
2023-04-26T14:36:28.166Z,18.90
2023-04-26T14:38:57.019Z,18.90
2023-04-26T14:41:25.773Z,18.90
2023-04-26T14:43:54.490Z,18.90
2023-04-26T14:46:23.146Z,18.90
2023-04-26T14:48:52.210Z,18.80
2023-04-26T14:51:22.396Z,18.80
2023-04-26T14:53:51.107Z,18.80
2023-04-26T14:56:19.706Z,18.80
2023-04-26T14:58:48.362Z,18.80
2023-04-26T15:01:17.243Z,18.70
2023-04-26T15:03:46.568Z,18.70
2023-04-26T15:06:15.393Z,18.70
2023-04-26T15:08:45.532Z,18.70
2023-04-26T15:11:14.943Z,18.70
2023-04-26T15:13:43.885Z,18.70
2023-04-26T15:16:12.597Z,18.60
2023-04-26T15:18:41.431Z,18.60
2023-04-26T15:21:10.277Z,18.60
2023-04-26T15:23:38.974Z,18.60
2023-04-26T15:26:08.989Z,18.60
2023-04-26T15:28:37.680Z,18.60
2023-04-26T15:31:09.851Z,18.60
2023-04-26T15:33:38.766Z,18.60
2023-04-26T15:36:08.473Z,18.60
2023-04-26T15:38:37.312Z,18.60
2023-04-26T15:41:06.666Z,18.60
2023-04-26T15:43:36.721Z,18.60
2023-04-26T15:46:05.629Z,18.60
2023-04-26T15:48:34.335Z,18.60
2023-04-26T15:51:06.744Z,18.60
2023-04-26T15:53:36.429Z,18.60
2023-04-26T15:56:15.990Z,18.60
2023-04-26T15:58:46.700Z,18.60
2023-04-26T16:01:16.228Z,18.60
2023-04-26T16:03:47.512Z,18.60
2023-04-26T16:06:16.750Z,18.60
2023-04-26T16:08:48.330Z,18.60
2023-04-26T16:11:17.009Z,18.60
2023-04-26T16:13:51.832Z,18.60
2023-04-26T16:16:20.748Z,18.60
2023-04-26T16:18:49.369Z,18.60
2023-04-26T16:21:18.091Z,18.60
2023-04-26T16:23:46.906Z,18.60
2023-04-26T16:26:15.560Z,18.60
2023-04-26T16:28:44.352Z,18.60
2023-04-26T16:31:16.805Z,18.60
2023-04-26T16:33:45.661Z,18.60
2023-04-26T16:36:14.277Z,18.60
2023-04-26T16:38:42.986Z,18.60
2023-04-26T16:41:11.659Z,18.60
2023-04-26T16:43:40.364Z,18.60
2023-04-26T16:46:10.081Z,18.60
2023-04-26T16:48:40.712Z,18.60
2023-04-26T16:51:09.576Z,18.60
2023-04-26T16:53:38.293Z,18.60
2023-04-26T16:56:07.829Z,18.60
2023-04-26T16:58:36.514Z,18.60
2023-04-26T17:01:05.216Z,18.60
2023-04-26T17:03:34.039Z,18.60
2023-04-26T17:06:06.611Z,18.60
2023-04-26T17:08:35.226Z,18.60
2023-04-26T17:11:03.921Z,18.60
2023-04-26T17:13:33.352Z,18.50
2023-04-26T17:16:02.209Z,18.50
2023-04-26T17:18:30.798Z,18.50
2023-04-26T17:20:59.601Z,18.50
2023-04-26T17:23:30.190Z,18.50
2023-04-26T17:25:58.937Z,18.50
2023-04-26T17:28:27.575Z,18.50
2023-04-26T17:30:56.316Z,18.50
2023-04-26T17:33:25.494Z,18.40
2023-04-26T17:35:54.140Z,18.40
2023-04-26T17:38:22.880Z,18.40
2023-04-26T17:40:54.850Z,18.40
2023-04-26T17:43:23.628Z,18.40
2023-04-26T17:45:52.331Z,18.40
2023-04-26T17:48:21.011Z,18.40
2023-04-26T17:50:51.000Z,18.40
2023-04-26T17:53:19.943Z,18.30
2023-04-26T17:55:49.509Z,18.30
2023-04-26T17:58:19.549Z,18.30
2023-04-26T18:00:48.225Z,18.30
2023-04-26T18:03:17.085Z,18.30
2023-04-26T18:05:45.968Z,18.30
2023-04-26T18:08:14.575Z,18.30
2023-04-26T18:10:43.232Z,18.30
2023-04-26T18:13:12.232Z,18.30
2023-04-26T18:15:42.211Z,18.30
2023-04-26T18:18:10.881Z,18.30
2023-04-26T18:20:39.491Z,18.30
2023-04-26T18:23:08.199Z,18.30
2023-04-26T18:25:36.756Z,18.30
2023-04-26T18:28:05.648Z,18.30
2023-04-26T18:30:34.322Z,18.20
2023-04-26T18:33:05.190Z,18.20
2023-04-26T18:35:33.885Z,18.20
2023-04-26T18:38:02.592Z,18.20
2023-04-26T18:40:31.267Z,18.20
2023-04-26T18:42:59.990Z,18.20
2023-04-26T18:45:28.601Z,18.20
2023-04-26T18:47:57.262Z,18.20
2023-04-26T18:50:27.366Z,18.20
2023-04-26T18:52:56.050Z,18.20
2023-04-26T18:55:25.991Z,18.20
2023-04-26T18:57:54.663Z,18.10
2023-04-26T19:00:23.770Z,18.10
2023-04-26T19:02:53.508Z,18.10
2023-04-26T19:05:22.455Z,18.10
2023-04-26T19:07:54.790Z,18.10
2023-04-26T19:10:23.798Z,18.10
2023-04-26T19:12:52.512Z,18.10
2023-04-26T19:15:21.121Z,18.10
2023-04-26T19:17:50.625Z,18.10
2023-04-26T19:20:20.241Z,18.10
2023-04-26T19:22:48.882Z,18.10
2023-04-26T19:25:22.996Z,18.00
2023-04-26T19:27:52.312Z,18.00
2023-04-26T19:30:20.919Z,18.00
2023-04-26T19:32:49.714Z,18.00
2023-04-26T19:35:18.545Z,18.00
2023-04-26T19:37:47.233Z,18.00
2023-04-26T19:40:16.021Z,18.00
2023-04-26T19:42:46.156Z,18.00
2023-04-26T19:45:15.061Z,18.00
2023-04-26T19:47:43.821Z,17.90
2023-04-26T19:50:13.357Z,17.90
2023-04-26T19:52:42.038Z,17.90
2023-04-26T19:55:11.557Z,17.90
2023-04-26T19:57:41.121Z,17.90
2023-04-26T20:00:13.129Z,17.90
2023-04-26T20:02:41.854Z,17.90
2023-04-26T20:05:11.515Z,17.90
2023-04-26T20:07:40.110Z,17.90
2023-04-26T20:10:10.871Z,17.80
2023-04-26T20:12:39.624Z,17.80
2023-04-26T20:15:12.202Z,17.80
2023-04-26T20:17:41.415Z,17.80
2023-04-26T20:20:12.029Z,17.80
2023-04-26T20:22:41.629Z,17.80
2023-04-26T20:25:11.004Z,17.80
2023-04-26T20:27:39.663Z,17.80
2023-04-26T20:30:12.160Z,17.70
2023-04-26T20:32:40.933Z,17.70
2023-04-26T20:35:12.806Z,17.70
2023-04-26T20:37:41.470Z,17.70
2023-04-26T20:40:11.380Z,17.70
2023-04-26T20:42:40.916Z,17.70
2023-04-26T20:45:12.598Z,17.70
2023-04-26T20:47:41.397Z,17.70
2023-04-26T20:50:11.315Z,17.60
2023-04-26T20:52:40.029Z,17.60
2023-04-26T20:55:09.676Z,17.60
2023-04-26T20:57:38.668Z,17.60
2023-04-26T21:00:10.861Z,17.60
2023-04-26T21:02:40.074Z,17.60
2023-04-26T21:05:09.632Z,17.60
2023-04-26T21:07:38.392Z,17.60
2023-04-26T21:10:08.329Z,17.50
2023-04-26T21:12:37.229Z,17.50
2023-04-26T21:15:07.454Z,17.50
2023-04-26T21:17:37.519Z,17.50
2023-04-26T21:20:07.426Z,17.50
2023-04-26T21:22:36.067Z,17.50
2023-04-26T21:25:05.074Z,17.40
2023-04-26T21:27:34.097Z,17.40
2023-04-26T21:30:02.721Z,17.40
2023-04-26T21:32:31.427Z,17.40
2023-04-26T21:35:01.448Z,17.40
2023-04-26T21:37:30.888Z,17.40
2023-04-26T21:40:00.459Z,17.40
2023-04-26T21:42:29.246Z,17.40
2023-04-26T21:44:57.911Z,17.40
2023-04-26T21:47:26.698Z,17.30
2023-04-26T21:49:55.344Z,17.30
2023-04-26T21:52:25.320Z,17.30
2023-04-26T21:54:54.111Z,17.30
2023-04-26T21:57:25.683Z,17.30
2023-04-26T21:59:54.456Z,17.30
2023-04-26T22:02:24.470Z,17.20
2023-04-26T22:04:55.194Z,17.20
2023-04-26T22:07:25.439Z,17.20
2023-04-26T22:09:54.648Z,17.20
2023-04-26T22:12:23.584Z,17.20
2023-04-26T22:14:52.269Z,17.20
2023-04-26T22:17:21.020Z,17.20
2023-04-26T22:19:50.090Z,17.10
2023-04-26T22:22:18.752Z,17.10
2023-04-26T22:24:48.795Z,17.10
2023-04-26T22:27:17.600Z,17.10
2023-04-26T22:29:46.335Z,17.10
2023-04-26T22:32:15.064Z,17.10
2023-04-26T22:34:43.994Z,17.00
2023-04-26T22:37:20.188Z,17.00
2023-04-26T22:39:53.556Z,17.00
2023-04-26T22:42:22.109Z,17.00
2023-04-26T22:44:51.869Z,17.00
2023-04-26T22:47:22.853Z,17.00
2023-04-26T22:49:51.513Z,16.90
2023-04-26T22:52:30.348Z,16.90
2023-04-26T22:55:01.465Z,16.90
2023-04-26T22:57:31.233Z,16.90
2023-04-26T23:00:00.194Z,16.90
2023-04-26T23:02:28.969Z,16.80
2023-04-26T23:04:57.774Z,16.80
2023-04-26T23:07:26.802Z,16.80
2023-04-26T23:09:55.440Z,16.80
2023-04-26T23:12:25.490Z,16.80
2023-04-26T23:14:57.562Z,16.80
2023-04-26T23:17:26.618Z,16.70
2023-04-26T23:19:55.457Z,16.70
2023-04-26T23:22:24.134Z,16.70
2023-04-26T23:24:52.814Z,16.70
2023-04-26T23:27:21.511Z,16.70
2023-04-26T23:29:52.806Z,16.70
2023-04-26T23:32:21.462Z,16.70
2023-04-26T23:34:50.112Z,16.60
2023-04-26T23:37:18.933Z,16.60
2023-04-26T23:39:47.556Z,16.60
2023-04-26T23:42:16.290Z,16.60
2023-04-26T23:44:44.896Z,16.50
2023-04-26T23:47:14.988Z,16.50
2023-04-26T23:49:43.666Z,16.50
2023-04-26T23:52:12.302Z,16.50
2023-04-26T23:54:40.894Z,16.50
2023-04-26T23:57:09.532Z,16.50
2023-04-26T23:59:38.219Z,16.50
